Time;durP1;ratioP1;P1;durP2;ratioP2;P2;SDS_P1;SDS_P2;PMS_P1;PMS_P2;Temp;Humidity;BMP_temperature;BMP_pressure;BME280_temperature;BME280_humidity;BME280_pressure;Samples;Min_cycle;Max_cycle;Signal;HPM_P1;HPM_P2
2022/09/08 04:01:10;;;;;;;1.60;1.50;;;19.10;99.90;;;;;;5643588;23;20513;-61
2022/09/08 04:03:36;;;;;;;1.77;1.67;;;19.10;99.90;;;;;;4975331;28;20447;-60
2022/09/08 04:06:04;;;;;;;2.00;1.90;;;19.00;99.90;;;;;;4974886;28;20450;-61
2022/09/08 04:08:30;;;;;;;1.57;1.53;;;19.00;99.90;;;;;;4974981;28;20446;-60
2022/09/08 04:10:57;;;;;;;1.77;1.77;;;19.00;99.90;;;;;;4974851;28;20471;-61
2022/09/08 04:13:24;;;;;;;1.60;1.50;;;18.90;99.90;;;;;;4974857;28;20454;-61
2022/09/08 04:15:51;;;;;;;1.37;1.37;;;18.80;99.90;;;;;;4974669;28;20477;-61
2022/09/08 04:18:19;;;;;;;1.57;1.43;;;18.70;99.90;;;;;;4975606;28;20532;-61
2022/09/08 04:20:46;;;;;;;2.57;1.80;;;18.70;99.90;;;;;;4974704;28;20478;-61
2022/09/08 04:23:12;;;;;;;1.47;1.40;;;18.70;99.90;;;;;;4974758;28;20462;-61
2022/09/08 04:25:39;;;;;;;1.53;1.40;;;18.70;99.90;;;;;;4974716;28;20455;-61
2022/09/08 04:28:06;;;;;;;1.23;1.20;;;18.70;99.90;;;;;;4974798;28;20458;-61
2022/09/08 04:30:32;;;;;;;1.50;1.50;;;18.70;99.90;;;;;;4977984;28;20475;-61
2022/09/08 04:32:59;;;;;;;2.57;1.40;;;18.70;99.90;;;;;;4979621;28;20502;-59
2022/09/08 04:35:27;;;;;;;2.80;1.57;;;18.60;99.90;;;;;;4979354;28;20486;-60
2022/09/08 04:37:54;;;;;;;2.63;1.33;;;18.50;99.90;;;;;;4978035;28;20474;-60
2022/09/08 04:40:20;;;;;;;1.50;1.47;;;18.50;99.90;;;;;;4978218;28;20501;-60
2022/09/08 04:42:47;;;;;;;1.57;1.57;;;18.40;99.90;;;;;;4978219;28;20462;-60
2022/09/08 04:45:15;;;;;;;1.90;1.50;;;18.30;99.90;;;;;;4978281;28;20454;-60
2022/09/08 04:47:42;;;;;;;2.43;1.80;;;18.30;99.90;;;;;;4978220;28;20491;-60
2022/09/08 04:50:09;;;;;;;1.30;1.20;;;18.20;99.90;;;;;;4977875;28;20797;-60
2022/09/08 04:52:37;;;;;;;1.60;1.50;;;18.10;99.90;;;;;;4979234;28;20455;-60
2022/09/08 04:55:05;;;;;;;1.30;1.30;;;18.10;99.90;;;;;;4978280;28;20525;-61
2022/09/08 04:57:31;;;;;;;2.00;1.50;;;18.00;99.90;;;;;;4978030;28;20668;-60
2022/09/08 04:59:58;;;;;;;1.60;1.50;;;18.00;99.90;;;;;;4978060;28;20501;-60
2022/09/08 05:02:25;;;;;;;1.57;1.57;;;17.90;99.90;;;;;;4977894;28;20482;-62
2022/09/08 05:04:52;;;;;;;1.70;1.60;;;17.90;99.90;;;;;;4978373;28;20516;-62
2022/09/08 05:07:18;;;;;;;1.50;1.50;;;17.90;99.90;;;;;;4978181;28;20542;-61
2022/09/08 05:09:46;;;;;;;5.70;2.10;;;18.00;99.90;;;;;;4978208;28;20458;-62
2022/09/08 05:12:13;;;;;;;1.53;1.53;;;18.10;99.90;;;;;;4979563;28;20526;-61
2022/09/08 05:14:40;;;;;;;1.40;1.30;;;18.20;99.90;;;;;;4980359;28;20458;-62
2022/09/08 05:17:07;;;;;;;1.80;1.70;;;18.30;99.90;;;;;;4979548;28;20569;-60
2022/09/08 05:19:33;;;;;;;1.70;1.53;;;18.30;99.90;;;;;;4977482;28;20459;-60
2022/09/08 05:22:00;;;;;;;1.43;1.33;;;18.30;99.90;;;;;;4977380;28;20478;-60
2022/09/08 05:24:27;;;;;;;1.80;1.70;;;18.30;99.90;;;;;;4977735;28;20509;-60
2022/09/08 05:26:55;;;;;;;2.63;1.73;;;18.20;99.90;;;;;;4977419;28;20514;-60
2022/09/08 05:29:22;;;;;;;1.77;1.67;;;18.20;99.90;;;;;;4977334;28;20459;-60
2022/09/08 05:31:49;;;;;;;1.80;1.70;;;18.20;99.90;;;;;;4977419;28;20478;-60
2022/09/08 05:34:16;;;;;;;1.67;1.57;;;18.10;99.90;;;;;;4977419;28;20455;-60
2022/09/08 05:36:43;;;;;;;3.77;1.73;;;18.10;99.90;;;;;;4977243;28;20459;-60
2022/09/08 05:39:10;;;;;;;3.37;1.70;;;18.00;99.90;;;;;;4977086;28;20478;-60
2022/09/08 05:41:37;;;;;;;4.43;2.50;;;18.10;99.90;;;;;;4976666;28;20874;-60
2022/09/08 05:44:06;;;;;;;2.00;1.90;;;18.20;99.90;;;;;;4976745;28;20458;-60
2022/09/08 05:46:33;;;;;;;2.30;1.87;;;18.20;99.90;;;;;;4976960;28;20551;-60
2022/09/08 05:49:01;;;;;;;3.90;2.00;;;18.30;99.90;;;;;;4977006;28;20506;-60
2022/09/08 05:51:28;;;;;;;2.00;1.90;;;18.40;99.90;;;;;;4976835;28;20478;-59
2022/09/08 05:53:58;;;;;;;2.30;2.13;;;18.40;99.90;;;;;;4976966;28;20553;-60
2022/09/08 05:56:25;;;;;;;2.70;1.90;;;18.40;99.90;;;;;;4977132;28;20455;-59
2022/09/08 05:58:52;;;;;;;2.43;2.23;;;18.30;99.90;;;;;;4976773;28;20527;-59
2022/09/08 06:01:20;;;;;;;4.20;2.17;;;18.30;99.90;;;;;;4976572;28;20489;-60
2022/09/08 06:03:51;;;;;;;3.57;2.00;;;18.20;99.90;;;;;;4976360;28;20462;-60
2022/09/08 06:06:19;;;;;;;2.97;2.33;;;18.20;99.90;;;;;;4976816;28;20449;-60
2022/09/08 06:08:45;;;;;;;2.50;2.30;;;18.30;99.90;;;;;;4977428;28;20451;-60
2022/09/08 06:11:13;;;;;;;2.93;2.40;;;18.20;99.90;;;;;;4977153;28;20549;-60
2022/09/08 06:13:40;;;;;;;3.30;2.17;;;18.20;99.90;;;;;;4977589;28;20454;-60
2022/09/08 06:16:08;;;;;;;2.80;2.30;;;18.20;99.90;;;;;;4977200;28;20459;-60
2022/09/08 06:18:38;;;;;;;2.93;2.27;;;18.20;99.90;;;;;;4977043;28;20533;-60
2022/09/08 06:21:06;;;;;;;2.80;2.60;;;18.20;99.90;;;;;;4977430;28;20482;-60
2022/09/08 06:23:33;;;;;;;3.93;2.40;;;18.20;99.90;;;;;;4977289;28;20458;-60
2022/09/08 06:26:10;;;;;;;2.10;2.00;;;18.20;99.90;;;;;;4977043;28;20458;-60
2022/09/08 06:28:45;;;;;;;2.60;1.97;;;18.30;99.90;;;;;;4976894;28;20493;-60
2022/09/08 06:31:13;;;;;;;3.33;1.70;;;18.30;99.90;;;;;;4976944;28;20521;-60
2022/09/08 06:33:42;;;;;;;3.57;1.50;;;18.30;99.90;;;;;;4976253;28;20454;-60
2022/09/08 06:36:14;;;;;;;2.63;1.40;;;18.30;99.90;;;;;;4976143;28;20481;-60
2022/09/08 06:38:47;;;;;;;1.30;1.30;;;18.20;99.90;;;;;;4976078;28;20487;-60
2022/09/08 06:41:17;;;;;;;1.17;1.17;;;18.20;99.90;;;;;;4975996;28;20842;-60
2022/09/08 06:43:48;;;;;;;2.33;0.90;;;18.20;99.90;;;;;;4976036;28;20447;-60
2022/09/08 06:46:21;;;;;;;1.33;1.00;;;18.10;99.90;;;;;;4976048;28;20868;-59
2022/09/08 06:48:49;;;;;;;2.63;1.53;;;18.10;99.90;;;;;;4975714;28;20981;-60
2022/09/08 06:51:25;;;;;;;2.63;1.10;;;18.10;99.90;;;;;;4975600;28;20486;-60
2022/09/08 06:54:02;;;;;;;1.90;1.07;;;18.00;99.90;;;;;;4975851;28;20438;-60
2022/09/08 06:56:40;;;;;;;1.10;1.10;;;18.00;99.90;;;;;;4975827;28;20443;-60
2022/09/08 06:59:10;;;;;;;3.80;1.30;;;17.90;99.90;;;;;;4975360;28;20973;-61
2022/09/08 07:01:44;;;;;;;3.00;1.33;;;17.90;99.90;;;;;;4975506;28;20487;-61
2022/09/08 07:04:28;;;;;;;3.33;1.67;;;18.00;99.90;;;;;;4975827;28;20438;-61
2022/09/08 07:06:59;;;;;;;2.00;1.00;;;18.00;99.90;;;;;;4975548;28;20439;-60
2022/09/08 07:09:34;;;;;;;1.67;1.20;;;18.10;99.90;;;;;;4975502;28;20930;-60
2022/09/08 07:12:15;;;;;;;1.60;1.30;;;18.10;99.90;;;;;;4975470;28;20482;-60
2022/09/08 07:15:06;;;;;;;2.20;1.10;;;18.10;99.90;;;;;;4975486;28;20443;-60
2022/09/08 07:17:36;;;;;;;2.60;1.30;;;18.00;99.90;;;;;;4975379;28;20439;-61
2022/09/08 07:20:10;;;;;;;1.37;1.27;;;18.00;99.90;;;;;;4975507;28;20892;-60
2022/09/08 07:22:43;;;;;;;1.30;1.20;;;18.00;99.90;;;;;;4975495;28;20497;-60
2022/09/08 07:25:26;;;;;;;2.00;1.10;;;18.10;99.90;;;;;;4975090;28;20910;-61
2022/09/08 07:27:59;;;;;;;1.17;1.17;;;18.10;99.90;;;;;;4974161;28;20487;-61
2022/09/08 07:30:25;;;;;;;2.43;1.10;;;18.10;99.90;;;;;;4974945;28;21010;-61
2022/09/08 07:32:58;;;;;;;1.90;1.13;;;18.10;99.90;;;;;;4975077;28;20454;-60
2022/09/08 07:35:35;;;;;;;2.50;1.00;;;18.10;99.90;;;;;;4975160;28;20439;-60
2022/09/08 07:38:06;;;;;;;1.23;1.00;;;18.10;99.90;;;;;;4974929;28;20546;-60
2022/09/08 07:40:40;;;;;;;0.80;0.80;;;18.10;99.90;;;;;;4975092;28;20478;-60
2022/09/08 07:43:11;;;;;;;0.90;0.90;;;18.20;99.90;;;;;;4975135;28;20509;-61
2022/09/08 07:45:45;;;;;;;1.37;1.10;;;18.30;99.90;;;;;;4975212;28;20451;-61
2022/09/08 07:48:23;;;;;;;1.03;0.80;;;18.40;99.90;;;;;;4975182;28;20497;-60
2022/09/08 07:51:01;;;;;;;2.00;1.10;;;18.50;99.90;;;;;;4974978;28;20548;-60
2022/09/08 07:53:44;;;;;;;3.13;1.10;;;18.60;99.90;;;;;;4975890;28;20450;-60
2022/09/08 07:56:15;;;;;;;0.80;0.80;;;18.90;99.90;;;;;;4975034;28;20870;-61
2022/09/08 07:58:47;;;;;;;1.00;1.00;;;19.40;99.90;;;;;;4975033;28;20518;-61
2022/09/08 08:01:30;;;;;;;0.60;0.60;;;20.20;99.90;;;;;;4974693;28;20486;-60
2022/09/08 08:04:08;;;;;;;1.23;0.97;;;21.30;99.90;;;;;;4975480;28;20906;-61
2022/09/08 08:06:39;;;;;;;0.80;0.80;;;22.50;99.90;;;;;;4978953;28;20513;-61
2022/09/08 08:09:14;;;;;;;4.07;0.90;;;23.60;99.90;;;;;;4979666;28;20490;-61
2022/09/08 08:11:51;;;;;;;1.80;1.03;;;24.10;99.90;;;;;;4978450;28;20981;-61
2022/09/08 08:14:27;;;;;;;1.20;0.50;;;24.60;99.90;;;;;;4978412;28;20994;-61
2022/09/08 08:17:04;;;;;;;0.77;0.77;;;24.70;99.90;;;;;;4978765;28;20446;-61
2022/09/08 08:19:52;;;;;;;1.07;1.07;;;24.60;99.90;;;;;;4978759;28;20473;-61
2022/09/08 08:22:35;;;;;;;0.80;0.60;;;24.90;99.90;;;;;;4978464;28;20506;-61
2022/09/08 08:25:12;;;;;;;3.90;0.83;;;25.70;99.90;;;;;;4978659;28;20443;-60
2022/09/08 08:27:48;;;;;;;1.97;0.93;;;26.70;99.90;;;;;;4978574;28;20472;-61
2022/09/08 08:30:19;;;;;;;1.43;0.60;;;27.40;99.90;;;;;;4978090;28;20965;-61
2022/09/08 08:32:53;;;;;;;1.00;0.70;;;27.40;99.90;;;;;;4978375;28;20452;-61
2022/09/08 08:35:26;;;;;;;2.97;0.90;;;27.00;98.40;;;;;;4978090;28;20481;-61
2022/09/08 08:37:56;;;;;;;1.23;0.70;;;26.70;99.10;;;;;;4978310;28;20545;-60
2022/09/08 08:40:38;;;;;;;0.77;0.73;;;26.60;99.90;;;;;;4978386;28;20454;-61
2022/09/08 08:43:23;;;;;;;1.13;1.03;;;27.00;99.90;;;;;;4978433;28;20443;-61
2022/09/08 08:46:02;;;;;;;1.43;0.70;;;27.60;99.60;;;;;;4978766;28;20442;-61
2022/09/08 08:48:44;;;;;;;0.47;0.47;;;28.10;96.90;;;;;;4978059;28;20562;-61
2022/09/08 08:51:24;;;;;;;1.00;0.83;;;29.10;95.00;;;;;;4978192;28;20537;-61
2022/09/08 08:54:19;;;;;;;0.70;0.70;;;30.10;92.70;;;;;;4977743;28;20902;-61
2022/09/08 08:56:49;;;;;;;0.57;0.57;;;31.00;87.70;;;;;;4977993;28;20486;-62
2022/09/08 08:59:54;;;;;;;1.70;0.87;;;31.80;84.40;;;;;;4977618;28;20993;-61
2022/09/08 09:02:37;;;;;;;1.57;0.60;;;32.40;81.10;;;;;;4977415;28;20988;-61
2022/09/08 09:05:31;;;;;;;1.20;1.10;;;32.50;77.40;;;;;;4977977;28;20435;-61
2022/09/08 09:08:25;;;;;;;0.80;0.70;;;31.50;75.10;;;;;;4976238;28;20458;-61
2022/09/08 09:11:10;;;;;;;0.80;0.80;;;30.50;77.60;;;;;;4977358;28;21064;-60
2022/09/08 09:13:58;;;;;;;1.47;0.90;;;29.20;80.40;;;;;;4977724;28;20435;-61
2022/09/08 09:16:41;;;;;;;0.80;0.80;;;28.20;83.40;;;;;;4977350;28;20442;-61
2022/09/08 09:19:26;;;;;;;1.40;0.70;;;27.30;90.30;;;;;;4977541;28;20466;-61
2022/09/08 09:22:01;;;;;;;1.93;0.80;;;26.60;90.40;;;;;;4977587;28;20474;-61
2022/09/08 09:24:39;;;;;;;1.00;0.90;;;26.20;92.30;;;;;;4977474;28;20489;-60
2022/09/08 09:27:23;;;;;;;0.77;0.77;;;25.80;94.20;;;;;;4977519;28;20443;-60
2022/09/08 09:30:02;;;;;;;0.67;0.67;;;25.60;94.90;;;;;;4977540;28;20490;-60
2022/09/08 09:32:52;;;;;;;0.87;0.83;;;25.50;95.50;;;;;;4977511;28;20483;-61
2022/09/08 09:35:52;;;;;;;0.97;0.70;;;25.50;95.30;;;;;;4977419;28;20505;-60
2022/09/08 09:38:34;;;;;;;0.63;0.63;;;25.60;96.00;;;;;;4977198;28;20501;-60
2022/09/08 09:41:24;;;;;;;1.20;0.70;;;26.20;95.00;;;;;;4977464;28;20529;-60
2022/09/08 09:44:17;;;;;;;1.10;0.87;;;27.40;94.80;;;;;;4976917;28;20853;-61
2022/09/08 09:47:18;;;;;;;2.50;0.80;;;28.80;91.70;;;;;;4977093;28;20513;-61
2022/09/08 09:50:07;;;;;;;1.63;0.77;;;30.20;88.70;;;;;;4977134;28;20442;-61
2022/09/08 09:52:43;;;;;;;0.60;0.60;;;31.00;84.50;;;;;;4976699;28;21042;-61
2022/09/08 09:55:38;;;;;;;1.43;0.60;;;31.40;79.50;;;;;;4977106;28;20447;-61
2022/09/08 09:58:45;;;;;;;2.93;0.87;;;31.00;78.20;;;;;;4977052;28;20788;-61
2022/09/08 10:01:42;;;;;;;0.53;0.53;;;31.20;80.50;;;;;;4976550;28;20545;-60
2022/09/08 10:04:37;;;;;;;0.77;0.70;;;31.60;76.20;;;;;;4976425;28;20570;-60
2022/09/08 10:07:39;;;;;;;1.17;1.10;;;32.30;77.10;;;;;;4976775;28;20937;-61
2022/09/08 10:10:23;;;;;;;0.80;0.50;;;33.00;71.20;;;;;;4976741;28;20836;-61
2022/09/08 10:13:22;;;;;;;1.90;0.80;;;33.50;67.80;;;;;;4976454;28;20439;-60
2022/09/08 10:16:29;;;;;;;0.50;0.50;;;33.80;65.70;;;;;;4976625;28;20783;-61
2022/09/08 10:19:22;;;;;;;0.63;0.63;;;34.20;64.60;;;;;;4976553;28;20521;-61
2022/09/08 10:22:22;;;;;;;0.73;0.67;;;34.60;61.80;;;;;;4976486;28;20532;-61
2022/09/08 10:25:30;;;;;;;1.87;0.80;;;34.30;59.30;;;;;;4976134;28;20511;-61
2022/09/08 10:28:35;;;;;;;0.70;0.70;;;33.30;61.40;;;;;;4934750;29;20492;-61
2022/09/08 10:31:33;;;;;;;0.60;0.60;;;32.00;62.90;;;;;;4976238;28;20478;-61
2022/09/08 10:34:31;;;;;;;0.70;0.70;;;30.90;65.70;;;;;;4975899;28;20988;-60
2022/09/08 10:37:27;;;;;;;0.90;0.90;;;29.90;66.80;;;;;;4976115;28;20443;-60
2022/09/08 10:40:16;;;;;;;0.90;0.90;;;28.90;70.20;;;;;;4975502;28;20997;-60
2022/09/08 10:42:50;;;;;;;0.80;0.80;;;28.20;73.90;;;;;;4976013;28;20498;-60
2022/09/08 10:45:23;;;;;;;2.50;0.80;;;27.40;75.10;;;;;;4975604;28;20852;-60
2022/09/08 10:48:26;;;;;;;1.37;0.90;;;26.70;78.00;;;;;;4975959;28;20455;-60
2022/09/08 10:51:01;;;;;;;1.20;1.03;;;26.20;82.90;;;;;;4975812;28;20470;-60
2022/09/08 10:53:41;;;;;;;1.13;0.80;;;26.00;83.80;;;;;;4975824;28;20437;-60
2022/09/08 10:56:13;;;;;;;2.10;0.80;;;26.00;86.40;;;;;;4975827;28;20490;-60
2022/09/08 10:59:01;;;;;;;0.90;0.90;;;25.70;86.50;;;;;;4975636;28;20497;-60
2022/09/08 11:02:06;;;;;;;0.97;0.93;;;25.50;88.60;;;;;;4975304;28;20482;-60
2022/09/08 11:05:10;;;;;;;3.80;0.80;;;25.20;90.10;;;;;;4975858;28;20462;-60
2022/09/08 11:07:58;;;;;;;0.90;0.90;;;24.80;91.90;;;;;;4975396;28;20490;-60
2022/09/08 11:10:38;;;;;;;0.77;0.63;;;24.60;92.10;;;;;;4975964;28;20439;-60
2022/09/08 11:13:25;;;;;;;2.53;0.97;;;24.20;92.10;;;;;;4975361;28;21005;-60
2022/09/08 11:16:31;;;;;;;1.80;0.70;;;23.70;94.40;;;;;;4975399;28;20446;-60
2022/09/08 11:19:14;;;;;;;2.60;0.87;;;23.50;95.40;;;;;;4972459;28;20501;-60
2022/09/08 11:21:47;;;;;;;1.87;0.90;;;23.40;96.30;;;;;;4975448;28;20478;-60
2022/09/08 11:24:24;;;;;;;1.27;0.90;;;23.60;97.90;;;;;;4975395;28;20450;-60
2022/09/08 11:27:01;;;;;;;1.23;0.90;;;24.10;97.00;;;;;;4975271;28;20529;-60
2022/09/08 11:29:35;;;;;;;1.00;0.90;;;24.90;94.40;;;;;;4975402;28;20486;-61
2022/09/08 11:32:15;;;;;;;2.20;1.10;;;25.60;93.40;;;;;;4975164;28;20478;-60
2022/09/08 11:35:01;;;;;;;0.90;0.90;;;26.00;90.70;;;;;;4975263;28;20443;-60
2022/09/08 11:38:03;;;;;;;2.50;1.00;;;26.10;89.20;;;;;;4975040;28;20446;-60
2022/09/08 11:40:59;;;;;;;1.23;0.60;;;26.10;87.00;;;;;;4974612;28;20482;-60
2022/09/08 11:43:37;;;;;;;1.10;0.80;;;25.90;88.40;;;;;;4975103;28;20462;-60
2022/09/08 11:46:37;;;;;;;0.90;0.90;;;25.90;88.80;;;;;;4975285;28;20442;-60
2022/09/08 11:49:33;;;;;;;1.37;0.70;;;26.10;90.10;;;;;;4975136;28;20434;-60
2022/09/08 11:52:15;;;;;;;1.80;1.13;;;26.10;88.40;;;;;;4943153;28;20496;-60
2022/09/08 11:54:58;;;;;;;5.83;0.70;;;26.20;89.30;;;;;;4975242;28;20841;-60
2022/09/08 11:57:42;;;;;;;1.70;0.80;;;26.30;88.30;;;;;;4975246;28;20443;-60
2022/09/08 12:00:24;;;;;;;1.40;0.80;;;26.30;88.80;;;;;;4975357;28;20538;-60
2022/09/08 12:03:19;;;;;;;1.83;0.90;;;26.70;88.90;;;;;;4975373;28;20446;-61
2022/09/08 12:06:02;;;;;;;1.00;0.80;;;27.00;86.00;;;;;;4974869;28;20914;-60
2022/09/08 12:08:55;;;;;;;1.33;0.90;;;27.30;83.80;;;;;;4975182;28;20758;-60
2022/09/08 12:11:36;;;;;;;1.17;0.90;;;27.40;83.80;;;;;;4971334;28;20871;-60
2022/09/08 12:14:13;;;;;;;2.50;0.70;;;27.70;83.40;;;;;;4975266;28;20443;-61
2022/09/08 12:16:53;;;;;;;0.97;0.57;;;28.00;80.80;;;;;;4974680;28;20439;-61
2022/09/08 12:19:37;;;;;;;2.30;0.80;;;27.90;78.50;;;;;;4974592;28;20485;-61
2022/09/08 12:22:37;;;;;;;2.30;0.97;;;27.80;78.40;;;;;;4974863;28;20479;-60
2022/09/08 12:25:26;;;;;;;3.40;0.97;;;27.60;75.30;;;;;;4974678;28;20447;-61
2022/09/08 12:28:10;;;;;;;2.10;0.90;;;27.40;78.50;;;;;;4974567;28;20446;-61
2022/09/08 12:30:53;;;;;;;1.87;0.87;;;27.30;75.90;;;;;;4974630;28;20808;-61
2022/09/08 12:33:44;;;;;;;1.73;1.10;;;27.20;78.00;;;;;;4974679;28;20526;-61
2022/09/08 12:36:20;;;;;;;0.83;0.80;;;27.40;79.70;;;;;;4974653;28;20498;-61
2022/09/08 12:39:12;;;;;;;2.13;0.90;;;27.60;76.20;;;;;;4974290;28;21011;-61
2022/09/08 12:41:47;;;;;;;2.63;0.90;;;27.80;75.10;;;;;;4974619;28;20478;-61
2022/09/08 12:44:30;;;;;;;2.00;1.13;;;27.70;74.50;;;;;;4974706;28;20442;-61
2022/09/08 12:47:16;;;;;;;2.60;0.80;;;27.30;74.00;;;;;;4974513;28;20476;-61
2022/09/08 12:50:13;;;;;;;2.90;1.20;;;27.20;73.30;;;;;;4975008;28;20474;-61
2022/09/08 12:52:52;;;;;;;2.43;0.80;;;27.00;75.30;;;;;;4976869;28;20447;-62
2022/09/08 12:55:25;;;;;;;1.33;1.23;;;26.60;77.40;;;;;;4978370;28;20434;-61
2022/09/08 12:57:54;;;;;;;1.47;1.00;;;26.50;81.10;;;;;;4979029;28;20438;-62
2022/09/08 13:00:26;;;;;;;0.97;0.87;;;26.40;80.10;;;;;;4977866;28;20474;-61
2022/09/08 13:03:19;;;;;;;1.37;0.80;;;26.40;80.60;;;;;;4977979;28;20498;-61
2022/09/08 13:06:17;;;;;;;0.90;0.80;;;26.40;79.00;;;;;;4977764;28;20981;-61
2022/09/08 13:08:56;;;;;;;5.30;3.10;;;26.60;79.40;;;;;;4977685;28;20862;-62
2022/09/08 13:11:34;;;;;;;3.30;1.30;;;26.70;77.70;;;;;;4977315;28;21065;-60
2022/09/08 13:14:05;;;;;;;1.10;1.00;;;26.70;75.20;;;;;;4977763;28;20450;-61
2022/09/08 13:16:40;;;;;;;5.53;1.30;;;26.60;74.60;;;;;;4977697;28;20439;-62
2022/09/08 13:19:20;;;;;;;1.87;0.90;;;26.40;75.20;;;;;;4977506;28;20442;-62
2022/09/08 13:22:01;;;;;;;2.07;0.97;;;26.20;74.70;;;;;;4977521;28;20505;-60
2022/09/08 13:24:37;;;;;;;3.13;1.13;;;25.80;77.30;;;;;;4977534;28;20454;-60
2022/09/08 13:27:17;;;;;;;2.13;1.07;;;25.80;76.20;;;;;;4977241;28;20948;-61
2022/09/08 13:29:58;;;;;;;1.93;0.93;;;25.80;75.80;;;;;;4977494;28;20450;-60
2022/09/08 13:32:36;;;;;;;2.43;1.00;;;26.00;74.50;;;;;;4977057;28;21056;-61
2022/09/08 13:35:22;;;;;;;2.83;0.83;;;26.20;73.90;;;;;;4977592;28;20435;-61
2022/09/08 13:38:02;;;;;;;0.90;0.90;;;26.40;75.40;;;;;;4977435;28;20442;-61
2022/09/08 13:40:43;;;;;;;1.47;1.30;;;26.60;73.40;;;;;;4977144;28;20554;-60
2022/09/08 13:43:23;;;;;;;2.33;1.00;;;26.60;73.70;;;;;;4977407;28;20447;-61
2022/09/08 13:45:58;;;;;;;0.83;0.70;;;26.30;73.80;;;;;;4977888;28;20829;-61
2022/09/08 13:48:44;;;;;;;1.10;0.90;;;26.10;74.20;;;;;;4977341;28;20438;-61
2022/09/08 13:51:36;;;;;;;0.83;0.83;;;25.90;75.50;;;;;;4977093;28;20474;-60
2022/09/08 13:54:42;;;;;;;2.60;1.00;;;25.80;76.60;;;;;;4977066;28;20443;-61
2022/09/08 13:57:35;;;;;;;5.97;1.07;;;25.50;76.70;;;;;;4976724;28;20489;-61
2022/09/08 14:00:08;;;;;;;2.80;1.33;;;25.60;77.20;;;;;;4976658;28;20869;-61
2022/09/08 14:02:48;;;;;;;1.50;0.80;;;25.70;79.80;;;;;;4975381;28;20483;-61
2022/09/08 14:05:23;;;;;;;1.10;1.00;;;25.90;79.80;;;;;;4977107;28;20444;-62
2022/09/08 14:07:55;;;;;;;1.50;1.13;;;25.80;78.00;;;;;;4976960;28;20433;-60
2022/09/08 14:10:30;;;;;;;1.10;0.70;;;25.70;76.80;;;;;;4976796;28;20435;-60
2022/09/08 14:13:17;;;;;;;2.23;0.90;;;25.60;75.50;;;;;;4977056;28;20438;-60
2022/09/08 14:15:46;;;;;;;1.07;0.60;;;25.60;75.20;;;;;;4976690;28;20443;-61
2022/09/08 14:18:31;;;;;;;2.90;1.00;;;25.70;76.00;;;;;;4976578;28;20497;-60
2022/09/08 14:21:07;;;;;;;1.27;0.90;;;25.70;77.30;;;;;;4976383;28;20561;-60
2022/09/08 14:23:50;;;;;;;2.10;0.90;;;25.80;76.60;;;;;;4976481;28;20497;-60
2022/09/08 14:26:44;;;;;;;1.83;0.90;;;25.90;76.60;;;;;;4976503;28;20481;-61
2022/09/08 14:29:32;;;;;;;0.80;0.80;;;25.60;77.70;;;;;;4976703;28;20450;-60
2022/09/08 14:32:13;;;;;;;2.93;0.90;;;25.30;77.70;;;;;;4976400;28;20474;-61
2022/09/08 14:35:01;;;;;;;1.10;0.90;;;25.10;78.60;;;;;;4976568;28;20435;-61
2022/09/08 14:37:30;;;;;;;1.70;1.07;;;25.00;80.90;;;;;;4976344;28;20434;-61
2022/09/08 14:40:14;;;;;;;0.87;0.83;;;24.70;80.80;;;;;;4975848;28;20872;-62
2022/09/08 14:43:11;;;;;;;0.80;0.80;;;24.60;81.00;;;;;;4976272;28;20438;-61
2022/09/08 14:45:46;;;;;;;4.30;1.07;;;24.30;82.30;;;;;;4967454;28;20450;-61
2022/09/08 14:48:17;;;;;;;0.70;0.70;;;24.10;83.10;;;;;;4976069;28;20438;-61
2022/09/08 14:51:03;;;;;;;4.67;1.70;;;24.20;83.70;;;;;;4975908;28;20522;-62
2022/09/08 14:53:51;;;;;;;2.60;0.80;;;24.30;82.60;;;;;;4975867;28;20501;-61
2022/09/08 14:56:27;;;;;;;3.20;0.90;;;24.60;83.30;;;;;;4975632;28;20494;-61
2022/09/08 14:58:58;;;;;;;1.47;0.80;;;25.00;81.70;;;;;;4975728;28;20533;-61
2022/09/08 15:01:29;;;;;;;1.00;0.60;;;25.20;78.50;;;;;;4975192;28;20486;-61
2022/09/08 15:04:01;;;;;;;1.03;0.83;;;25.20;75.80;;;;;;4975669;28;20526;-62
2022/09/08 15:06:50;;;;;;;1.13;0.80;;;25.20;74.00;;;;;;4975526;28;20533;-62
2022/09/08 15:09:35;;;;;;;1.33;1.10;;;25.00;74.50;;;;;;4973620;28;20478;-63
2022/09/08 15:12:21;;;;;;;1.80;0.80;;;25.00;75.30;;;;;;4975161;28;21008;-62
2022/09/08 15:14:55;;;;;;;1.20;0.83;;;24.90;75.60;;;;;;4975440;28;20928;-61
2022/09/08 15:17:28;;;;;;;2.00;1.60;;;25.00;76.90;;;;;;4975648;28;20447;-62
2022/09/08 15:20:03;;;;;;;2.13;0.90;;;25.10;76.40;;;;;;4975414;28;20446;-62
2022/09/08 15:22:37;;;;;;;2.97;0.90;;;25.10;76.20;;;;;;4975395;28;20832;-62
2022/09/08 15:25:30;;;;;;;1.70;0.80;;;25.00;73.50;;;;;;4975369;28;20443;-62
2022/09/08 15:28:06;;;;;;;1.60;1.17;;;25.00;74.10;;;;;;4975589;28;20443;-62
2022/09/08 15:30:33;;;;;;;1.33;0.80;;;25.00;73.80;;;;;;4975250;28;20489;-62
2022/09/08 15:33:10;;;;;;;1.67;0.90;;;25.00;72.90;;;;;;4975809;28;20459;-62
2022/09/08 15:35:57;;;;;;;1.40;1.20;;;25.00;74.40;;;;;;4975559;28;20442;-62
2022/09/08 15:38:38;;;;;;;1.53;0.80;;;24.70;74.10;;;;;;4975465;28;20446;-62
2022/09/08 15:41:21;;;;;;;1.07;0.97;;;24.40;75.60;;;;;;4975082;28;20486;-62
2022/09/08 15:44:14;;;;;;;2.30;0.93;;;24.40;76.70;;;;;;4975793;28;20439;-62
2022/09/08 15:47:04;;;;;;;2.30;0.90;;;24.20;77.10;;;;;;4975295;28;20468;-62
2022/09/08 15:49:48;;;;;;;1.17;0.60;;;24.10;77.30;;;;;;4975035;28;20445;-62
2022/09/08 15:52:36;;;;;;;1.53;0.70;;;24.10;77.20;;;;;;4974994;28;20474;-62
2022/09/08 15:55:11;;;;;;;1.63;0.93;;;24.00;77.00;;;;;;4975083;28;20435;-62
2022/09/08 15:57:53;;;;;;;4.20;1.27;;;24.00;77.40;;;;;;4974630;28;20478;-62
2022/09/08 16:00:26;;;;;;;0.70;0.70;;;23.90;77.30;;;;;;4974891;28;20478;-62
2022/09/08 16:03:01;;;;;;;0.70;0.70;;;23.90;78.70;;;;;;4975947;28;20435;-62
2022/09/08 16:05:42;;;;;;;1.13;0.90;;;23.80;77.70;;;;;;4974994;28;20509;-62
2022/09/08 16:08:32;;;;;;;1.87;1.30;;;23.70;78.60;;;;;;4974930;28;20489;-62
2022/09/08 16:11:07;;;;;;;4.90;1.30;;;23.60;78.40;;;;;;4974724;28;20471;-61
2022/09/08 16:13:43;;;;;;;3.93;1.17;;;23.50;79.00;;;;;;4974977;28;20454;-62
2022/09/08 16:19:03;;;;;;;2.30;1.07;;;23.40;79.90;;;;;;5092380;27;20532;-62
2022/09/08 16:21:35;;;;;;;1.03;0.80;;;23.10;80.80;;;;;;5091419;28;20476;-62
2022/09/08 16:24:06;;;;;;;4.23;1.03;;;22.90;80.70;;;;;;5091623;28;20467;-62
2022/09/08 16:26:45;;;;;;;1.90;0.70;;;22.80;80.90;;;;;;5091583;28;20426;-62
2022/09/08 16:29:29;;;;;;;1.50;1.10;;;22.70;81.40;;;;;;5091175;28;20917;-62
2022/09/08 16:32:02;;;;;;;2.73;1.67;;;22.60;81.40;;;;;;5091426;28;20476;-62
2022/09/08 16:34:31;;;;;;;3.43;1.03;;;22.60;82.80;;;;;;5091481;28;20440;-63
2022/09/08 16:37:14;;;;;;;1.23;1.00;;;22.60;82.30;;;;;;5091284;28;20457;-63
2022/09/08 16:40:00;;;;;;;2.77;1.20;;;22.70;83.60;;;;;;5091021;28;20438;-62
2022/09/08 16:42:36;;;;;;;5.13;1.30;;;22.70;82.30;;;;;;5091147;28;20477;-62
2022/09/08 16:45:12;;;;;;;1.90;1.03;;;22.80;82.90;;;;;;5091151;28;20498;-62
2022/09/08 16:47:49;;;;;;;1.27;1.10;;;22.80;83.00;;;;;;5090907;28;20465;-62
2022/09/08 16:50:26;;;;;;;2.33;1.13;;;22.70;83.90;;;;;;5090727;28;20438;-62
2022/09/08 16:52:54;;;;;;;3.10;1.10;;;22.80;84.60;;;;;;5090843;28;20528;-62
2022/09/08 16:55:30;;;;;;;4.93;1.13;;;22.80;84.70;;;;;;5090527;28;20457;-62
2022/09/08 16:58:20;;;;;;;6.80;1.20;;;22.90;88.00;;;;;;5090724;28;20457;-62
2022/09/08 17:00:58;;;;;;;3.13;0.93;;;23.00;88.00;;;;;;5090482;28;20473;-63
2022/09/08 17:03:37;;;;;;;7.57;1.10;;;23.10;89.50;;;;;;5090575;28;20433;-62
2022/09/08 17:06:16;;;;;;;1.50;0.70;;;23.10;89.50;;;;;;5090731;28;20434;-62
2022/09/08 17:08:45;;;;;;;2.93;1.47;;;23.10;90.60;;;;;;5090360;28;20516;-65
2022/09/08 17:11:23;;;;;;;11.87;6.60;;;22.90;89.40;;;;;;5090721;28;20487;-63
2022/09/08 17:13:50;;;;;;;8.47;7.23;;;22.70;91.30;;;;;;5090701;28;20890;-62
2022/09/08 17:17:14;;;;;;;2.33;1.67;;;22.60;94.90;;;;;;5090385;28;20950;-63
2022/09/08 17:19:54;;;;;;;2.17;1.50;;;22.50;95.40;;;;;;5090094;28;20430;-63
2022/09/08 17:22:49;;;;;;;6.03;1.63;;;22.40;96.70;;;;;;5090544;28;20465;-63
2022/09/08 17:25:31;;;;;;;1.73;1.10;;;22.30;96.80;;;;;;5090350;28;20453;-64
2022/09/08 17:28:37;;;;;;;1.80;0.97;;;22.10;97.80;;;;;;5090625;28;20491;-63
2022/09/08 17:31:17;;;;;;;4.67;2.57;;;22.00;97.70;;;;;;5076413;28;20466;-63
2022/09/08 17:34:05;;;;;;;3.70;1.60;;;21.80;98.20;;;;;;5076871;28;20430;-63
2022/09/08 17:36:38;;;;;;;2.90;1.30;;;21.70;99.10;;;;;;5077426;28;20434;-63
2022/09/08 17:39:28;;;;;;;2.03;1.47;;;21.50;99.20;;;;;;5076691;28;20458;-62
2022/09/08 17:41:58;;;;;;;1.90;1.30;;;21.40;99.80;;;;;;5076797;28;20481;-64
2022/09/08 17:44:33;;;;;;;1.37;1.27;;;21.30;99.90;;;;;;5076893;28;20466;-63
2022/09/08 17:47:09;;;;;;;1.77;1.20;;;21.20;99.90;;;;;;5077176;28;20445;-63
2022/09/08 17:49:39;;;;;;;4.80;1.27;;;21.10;99.90;;;;;;5076364;28;20517;-63
2022/09/08 17:52:17;;;;;;;1.40;1.20;;;21.00;99.90;;;;;;5076558;28;20477;-63